^^
Datos históricos de la estación: Murcia-Puente Tocinos
Diario Informe para Abril 3, 2019 Unidades:  Métrico    Inglés   Ambas
Diario Semanal Mensual Anual Configurable
  Máximo: Mínimo: Media:
Temperatura: 23.2 °C 11.8 °C 17.5 °C
Punto de rocio: 12.6 °C 6.8 °C 10 °C
Humedad: 88% 36% 64%
Velocidad viento: 23.3km/h 0.0km/h 8.3km/h
Racha viento: 38.9km/h - -
Viento- - South
Presión: 1012.0 hPa 997.7 hPa -
Precipitación: 0.0 mm    
Historical Graphs
 
 
Tabla de datos para Abril 3, 2019
Hora Temperatura Punto de rocio Presión Viento Velocidad viento Racha viento Humedad Intensidad lluvia(por hora) Nubes
00:00 16.1 °C 12.2 °C 1012.0 hPa NE 8.0 km/h 14.5 km/h 78% 0.0 mm CLR
00:05 16.0 °C 12.2 °C 1011.9 hPa North 7.6 km/h 11.1 km/h 78% 0.0 mm CLR
00:10 16.0 °C 12.3 °C 1011.9 hPa ESE 8.7 km/h 9.3 km/h 79% 0.0 mm CLR
00:15 15.9 °C 12.3 °C 1011.9 hPa NE 8.7 km/h 9.3 km/h 79% 0.0 mm CLR
00:20 15.9 °C 12.4 °C 1011.9 hPa NE 6.4 km/h 11.1 km/h 80% 0.0 mm CLR
00:25 15.8 °C 12.3 °C 1011.9 hPa NNE 6.4 km/h 7.4 km/h 80% 0.0 mm CLR
00:30 15.6 °C 12.3 °C 1011.9 hPa NNE 6.4 km/h 11.1 km/h 81% 0.0 mm CLR
00:35 15.5 °C 12.4 °C 1011.8 hPa NNE 6.4 km/h 9.3 km/h 82% 0.0 mm CLR
00:40 15.4 °C 12.3 °C 1011.8 hPa NNE 6.4 km/h 7.6 km/h 82% 0.0 mm CLR
00:45 15.3 °C 12.2 °C 1011.8 hPa NNE 6.4 km/h 5.6 km/h 82% 0.0 mm CLR
00:50 15.2 °C 12.3 °C 1011.7 hPa NNW 4.7 km/h 7.6 km/h 83% 0.0 mm CLR
00:55 15.1 °C 12.2 °C 1011.7 hPa WNW 4.7 km/h 7.4 km/h 83% 0.0 mm CLR
01:00 15.1 °C 12.4 °C 1011.7 hPa NW 4.8 km/h 8.0 km/h 84% 0.0 mm CLR
01:05 14.9 °C 12.2 °C 1011.7 hPa NNW 5.0 km/h 7.4 km/h 84% 0.0 mm CLR
01:10 14.8 °C 12.3 °C 1011.7 hPa North 3.9 km/h 11.1 km/h 85% 0.0 mm CLR
01:15 14.7 °C 12.2 °C 1011.7 hPa North 3.9 km/h 7.6 km/h 85% 0.0 mm CLR
01:20 14.7 °C 12.4 °C 1011.6 hPa West 5.0 km/h 3.7 km/h 86% 0.0 mm CLR
01:25 14.6 °C 12.4 °C 1011.6 hPa West 5.0 km/h 2.3 km/h 87% 0.0 mm CLR
01:30 14.7 °C 12.6 °C 1011.6 hPa NNW 2.9 km/h 5.6 km/h 87% 0.0 mm CLR
01:35 14.7 °C 12.6 °C 1011.6 hPa WNW 2.9 km/h 7.4 km/h 87% 0.0 mm CLR
01:40 14.6 °C 12.4 °C 1011.6 hPa NW 3.9 km/h 5.6 km/h 87% 0.0 mm CLR
01:45 14.6 °C 12.4 °C 1011.6 hPa NW 3.9 km/h   87% 0.0 mm CLR
01:50 14.6 °C 12.4 °C 1011.4 hPa NW 2.3 km/h 3.9 km/h 87% 0.0 mm CLR
01:55 14.6 °C 12.4 °C 1011.4 hPa ESE 2.3 km/h 9.3 km/h 87% 0.0 mm CLR
02:00 14.6 °C 12.4 °C 1011.4 hPa ESE 3.2 km/h 8.0 km/h 87% 0.0 mm CLR
02:05 14.4 °C 12.3 °C 1011.0 hPa SE 3.9 km/h 5.6 km/h 87% 0.0 mm CLR
02:10 14.4 °C 12.1 °C 1011.0 hPa SE 3.2 km/h 5.6 km/h 86% 0.0 mm CLR
02:15 14.3 °C 12.0 °C 1011.0 hPa SE 3.2 km/h 1.9 km/h 86% 0.0 mm CLR
02:20 14.3 °C 12.0 °C 1011.0 hPa SE 2.3 km/h   86% 0.0 mm CLR
02:25 14.2 °C 11.9 °C 1011.0 hPa SE 2.3 km/h   86% 0.0 mm CLR
02:30 14.2 °C 11.9 °C 1011.0 hPa Calm     86% 0.0 mm CLR
02:35 14.2 °C 12.1 °C 1010.9 hPa Calm     87% 0.0 mm CLR
02:40 14.1 °C 11.9 °C 1010.9 hPa Calm     87% 0.0 mm CLR
02:45 14.1 °C 11.9 °C 1010.9 hPa Calm     87% 0.0 mm CLR
02:50 13.9 °C 11.6 °C 1010.7 hPa East 2.3 km/h 7.4 km/h 86% 0.0 mm CLR
02:55 13.7 °C 11.4 °C 1010.7 hPa SE 2.3 km/h 7.4 km/h 86% 0.0 mm CLR
03:00 13.6 °C 11.3 °C 1010.7 hPa SE 3.2 km/h 8.0 km/h 86% 0.0 mm CLR
03:05 13.6 °C 11.5 °C 1010.7 hPa South 4.7 km/h 7.6 km/h 87% 0.0 mm CLR
03:10 13.6 °C 11.3 °C 1010.7 hPa SSW 5.0 km/h 7.4 km/h 86% 0.0 mm CLR
03:15 13.6 °C 11.5 °C 1010.7 hPa SSW 5.0 km/h 5.6 km/h 87% 0.0 mm CLR
03:20 13.6 °C 11.5 °C 1010.4 hPa SSW 3.9 km/h 4.7 km/h 87% 0.0 mm CLR
03:25 13.6 °C 11.5 °C 1010.4 hPa WSW 3.9 km/h 7.4 km/h 87% 0.0 mm CLR
03:30 13.6 °C 11.5 °C 1010.4 hPa WSW 3.9 km/h 5.8 km/h 87% 0.0 mm CLR
03:35 13.5 °C 11.4 °C 1010.2 hPa West 3.9 km/h 5.6 km/h 87% 0.0 mm CLR
03:40 13.5 °C 11.6 °C 1010.2 hPa West 3.9 km/h 5.0 km/h 88% 0.0 mm CLR
03:45 13.6 °C 11.7 °C 1010.2 hPa South 3.9 km/h 9.3 km/h 88% 0.0 mm CLR
03:50 13.5 °C 11.4 °C 1010.1 hPa SW 4.7 km/h 9.3 km/h 87% 0.0 mm CLR
03:55 13.4 °C 11.3 °C 1010.1 hPa SSW 4.7 km/h 9.5 km/h 87% 0.0 mm CLR
04:00 13.4 °C 11.3 °C 1010.1 hPa SSW 8.0 km/h 11.3 km/h 87% 0.0 mm CLR
04:05 13.4 °C 11.3 °C 1009.9 hPa SSW 6.9 km/h 9.3 km/h 87% 0.0 mm CLR
04:10 13.5 °C 11.4 °C 1009.9 hPa SSW 6.9 km/h 7.4 km/h 87% 0.0 mm CLR
04:15 13.6 °C 11.3 °C 1009.9 hPa South 6.9 km/h 9.3 km/h 86% 0.0 mm CLR
04:20 13.5 °C 11.2 °C 1009.7 hPa South 6.9 km/h 11.1 km/h 86% 0.0 mm CLR
04:25 13.5 °C 11.2 °C 1009.7 hPa SW 6.9 km/h 7.4 km/h 86% 0.0 mm CLR
04:30 13.5 °C 11.4 °C 1009.7 hPa WSW 6.9 km/h 11.1 km/h 87% 0.0 mm CLR
04:35 13.5 °C 11.4 °C 1009.5 hPa West 6.9 km/h 5.6 km/h 87% 0.0 mm CLR
04:40 13.4 °C 11.3 °C 1009.5 hPa West 4.7 km/h 7.4 km/h 87% 0.0 mm CLR
04:45 13.3 °C 11.2 °C 1009.5 hPa WSW 4.7 km/h 7.4 km/h 87% 0.0 mm CLR
04:50 13.3 °C 11.2 °C 1009.3 hPa WSW 3.9 km/h 5.6 km/h 87% 0.0 mm CLR
04:55 13.2 °C 11.1 °C 1009.3 hPa WSW 3.9 km/h 7.4 km/h 87% 0.0 mm CLR
05:00 13.2 °C 11.1 °C 1009.3 hPa SW 3.2 km/h 9.7 km/h 87% 0.0 mm CLR
05:05 13.2 °C 11.1 °C 1009.1 hPa South 3.9 km/h 7.4 km/h 87% 0.0 mm CLR
05:10 13.1 °C 10.8 °C 1009.1 hPa SSW 5.0 km/h 7.4 km/h 86% 0.0 mm CLR
05:15 13.0 °C 10.9 °C 1009.1 hPa SW 5.0 km/h 7.4 km/h 87% 0.0 mm CLR
05:20 13.0 °C 10.9 °C 1008.9 hPa SW 4.7 km/h 9.3 km/h 87% 0.0 mm CLR
05:25 12.9 °C 10.8 °C 1008.9 hPa SW 4.7 km/h 9.3 km/h 87% 0.0 mm CLR
05:30 12.9 °C 10.8 °C 1008.9 hPa SSW 5.8 km/h 7.4 km/h 87% 0.0 mm CLR
05:35 13.0 °C 10.9 °C 1008.8 hPa SW 5.8 km/h 5.8 km/h 87% 0.0 mm CLR
05:40 13.0 °C 10.9 °C 1008.8 hPa SSW 4.7 km/h 9.3 km/h 87% 0.0 mm CLR
05:45 13.0 °C 10.9 °C 1008.8 hPa SSW 4.7 km/h 5.8 km/h 87% 0.0 mm CLR
05:50 13.0 °C 10.7 °C 1008.7 hPa SSE 5.0 km/h 9.3 km/h 86% 0.0 mm CLR
05:55 12.9 °C 10.6 °C 1008.7 hPa South 5.0 km/h 10.3 km/h 86% 0.0 mm CLR
06:00 12.8 °C 10.5 °C 1008.7 hPa SSE 8.0 km/h 11.3 km/h 86% 0.0 mm CLR
06:05 12.7 °C 10.4 °C 1008.6 hPa SSE 7.6 km/h 13.0 km/h 86% 0.0 mm CLR
06:10 12.4 °C 10.3 °C 1008.6 hPa South 6.9 km/h 7.4 km/h 87% 0.0 mm CLR
06:15 12.4 °C 10.3 °C 1008.6 hPa SSE 6.9 km/h 7.6 km/h 87% 0.0 mm CLR
06:20 12.3 °C 10.2 °C 1008.5 hPa SSE 5.8 km/h 9.3 km/h 87% 0.0 mm CLR
06:25 12.2 °C 10.3 °C 1008.5 hPa SSW 5.8 km/h 7.4 km/h 88% 0.0 mm CLR
06:30 12.2 °C 10.3 °C 1008.5 hPa South 5.8 km/h 7.4 km/h 88% 0.0 mm CLR
06:35 12.1 °C 10.2 °C 1008.5 hPa South 5.8 km/h 7.4 km/h 88% 0.0 mm CLR
06:40 12.1 °C 10.2 °C 1008.5 hPa South 5.0 km/h 4.7 km/h 88% 0.0 mm CLR
06:45 12.1 °C 10.2 °C 1008.5 hPa SSW 5.0 km/h 7.4 km/h 88% 0.0 mm CLR
06:50 12.1 °C 10.2 °C 1008.5 hPa SW 3.2 km/h 1.9 km/h 88% 0.0 mm CLR
06:55 12.1 °C 10.2 °C 1008.5 hPa SW 3.2 km/h 7.4 km/h 88% 0.0 mm CLR
07:00 12.2 °C 10.3 °C 1008.5 hPa SW 3.2 km/h 8.0 km/h 88% 0.0 mm CLR
07:05 12.2 °C 10.1 °C 1008.4 hPa SW 2.9 km/h 5.6 km/h 87% 0.0 mm CLR
07:10 12.2 °C 10.1 °C 1008.4 hPa SW 3.2 km/h 3.9 km/h 87% 0.0 mm CLR
07:15 12.2 °C 10.1 °C 1008.4 hPa SW 3.2 km/h   87% 0.0 mm CLR
07:20 12.2 °C 9.9 °C 1008.3 hPa SSW 2.9 km/h 8.4 km/h 86% 0.0 mm CLR
07:25 12.1 °C 9.8 °C 1008.3 hPa SSW 2.9 km/h 11.1 km/h 86% 0.0 mm CLR
07:30 12.0 °C 9.7 °C 1008.3 hPa South 6.4 km/h 9.3 km/h 86% 0.0 mm CLR
07:35 11.9 °C 9.6 °C 1008.3 hPa South 6.4 km/h 7.4 km/h 86% 0.0 mm CLR
07:40 11.9 °C 9.6 °C 1008.3 hPa South 4.7 km/h 7.4 km/h 86% 0.0 mm CLR
07:45 11.9 °C 9.6 °C 1008.3 hPa South 4.7 km/h 7.6 km/h 86% 0.0 mm CLR
07:50 11.9 °C 9.6 °C 1008.3 hPa SSE 4.7 km/h 7.4 km/h 86% 0.0 mm CLR
07:55 11.8 °C 9.6 °C 1008.3 hPa South 4.7 km/h 7.6 km/h 86% 0.0 mm CLR
08:00 11.8 °C 9.7 °C 1008.3 hPa South 4.8 km/h 9.7 km/h 87% 0.0 mm CLR
08:05 11.8 °C 9.7 °C 1008.3 hPa SW 5.8 km/h 9.3 km/h 87% 0.0 mm CLR
08:10 11.8 °C 9.7 °C 1008.3 hPa SSW 6.4 km/h 11.1 km/h 87% 0.0 mm CLR
08:15 11.8 °C 9.7 °C 1008.3 hPa SSW 6.4 km/h 7.4 km/h 87% 0.0 mm CLR
08:20 11.9 °C 9.8 °C 1008.2 hPa SW 5.0 km/h 7.4 km/h 87% 0.0 mm CLR
08:25 12.0 °C 9.7 °C 1008.2 hPa SW 5.0 km/h 7.4 km/h 86% 0.0 mm CLR
08:30 12.2 °C 9.9 °C 1008.2 hPa South 3.9 km/h 7.4 km/h 86% 0.0 mm CLR
08:35 12.2 °C 9.8 °C 1008.1 hPa South 3.9 km/h 7.4 km/h 85% 0.0 mm CLR
08:40 12.2 °C 9.8 °C 1008.1 hPa SSE 5.8 km/h 9.3 km/h 85% 0.0 mm CLR
08:45 12.3 °C 9.7 °C 1008.1 hPa South 5.8 km/h 7.4 km/h 84% 0.0 mm CLR
08:50 12.3 °C 9.7 °C 1008.1 hPa SSE 6.4 km/h 9.3 km/h 84% 0.0 mm CLR
08:55 12.4 °C 9.8 °C 1008.1 hPa SSE 6.4 km/h 10.3 km/h 84% 0.0 mm CLR
09:00 12.3 °C 9.7 °C 1008.1 hPa SSE 8.0 km/h 11.3 km/h 84% 0.0 mm CLR
09:05 12.3 °C 9.7 °C 1008.1 hPa SSE 7.6 km/h 9.3 km/h 84% 0.0 mm CLR
09:10 12.3 °C 9.7 °C 1008.1 hPa SSE 8.4 km/h 8.4 km/h 84% 0.0 mm CLR
09:15 12.5 °C 9.9 °C 1008.1 hPa SSE 8.4 km/h 9.5 km/h 84% 0.0 mm CLR
09:20 12.7 °C 9.7 °C 1007.9 hPa SW 6.9 km/h 11.1 km/h 82% 0.0 mm CLR
09:25 12.8 °C 9.6 °C 1007.9 hPa SSW 6.9 km/h 7.4 km/h 81% 0.0 mm CLR
09:30 12.8 °C 9.4 °C 1007.9 hPa SW 7.6 km/h 11.1 km/h 80% 0.0 mm CLR
09:35 12.8 °C 9.4 °C 1007.8 hPa SSW 7.6 km/h 7.6 km/h 80% 0.0 mm CLR
09:40 13.1 °C 9.6 °C 1007.8 hPa SSW 7.6 km/h 11.1 km/h 79% 0.0 mm CLR
09:45 13.2 °C 9.4 °C 1007.8 hPa SSW 7.6 km/h 11.1 km/h 78% 0.0 mm CLR
09:50 13.4 °C 9.7 °C 1007.6 hPa SSW 8.4 km/h 9.3 km/h 78% 0.0 mm CLR
09:55 13.7 °C 9.7 °C 1007.6 hPa SSW 8.4 km/h 9.3 km/h 77% 0.0 mm CLR
10:00 14.1 °C 9.7 °C 1007.6 hPa SW 4.8 km/h 9.7 km/h 75% 0.0 mm CLR
10:05 14.3 °C 9.7 °C 1007.4 hPa WSW 5.0 km/h 7.4 km/h 74% 0.0 mm CLR
10:10 14.6 °C 9.8 °C 1007.4 hPa SW 4.7 km/h 5.6 km/h 73% 0.0 mm CLR
10:14 14.8 °C 9.6 °C 1007.4 hPa SW 4.7 km/h 8.4 km/h 71% 0.0 mm CLR
10:20 14.9 °C 9.5 °C 1007.3 hPa SW 4.7 km/h 9.3 km/h 70% 0.0 mm CLR
10:25 15.1 °C 9.7 °C 1007.3 hPa SSW 4.7 km/h 9.3 km/h 70% 0.0 mm CLR
10:30 15.3 °C 9.4 °C 1007.3 hPa WSW 5.0 km/h 7.4 km/h 68% 0.0 mm CLR
10:35 15.5 °C 9.6 °C 1007.1 hPa South 5.0 km/h 7.4 km/h 68% 0.0 mm CLR
10:40 15.7 °C 9.1 °C 1007.1 hPa SW 4.7 km/h 11.1 km/h 65% 0.0 mm CLR
10:45 15.8 °C 8.8 °C 1007.1 hPa West 4.7 km/h 9.3 km/h 63% 0.0 mm CLR
10:50 16.1 °C 8.8 °C 1007.1 hPa West 5.0 km/h 4.7 km/h 62% 0.0 mm CLR
10:55 16.2 °C 8.7 °C 1007.1 hPa West 5.0 km/h 7.4 km/h 61% 0.0 mm CLR
11:00 16.4 °C 8.8 °C 1007.1 hPa West 3.2 km/h 9.7 km/h 61% 0.0 mm CLR
11:05 16.6 °C 9.1 °C 1006.8 hPa WNW 4.7 km/h 7.4 km/h 61% 0.0 mm CLR
11:10 16.8 °C 9.0 °C 1006.8 hPa WSW 4.7 km/h 10.0 km/h 60% 0.0 mm CLR
11:15 16.9 °C 8.8 °C 1006.8 hPa WSW 4.7 km/h 13.0 km/h 59% 0.0 mm CLR
11:20 16.9 °C 8.8 °C 1006.7 hPa SW 6.9 km/h 3.9 km/h 59% 0.0 mm CLR
11:25 17.2 °C 8.6 °C 1006.7 hPa SSW 6.9 km/h 7.4 km/h 57% 0.0 mm CLR
11:30 17.6 °C 8.7 °C 1006.7 hPa SW 5.0 km/h 3.7 km/h 56% 0.0 mm CLR
11:35 17.9 °C 8.4 °C 1006.5 hPa South 5.0 km/h 11.9 km/h 54% 0.0 mm CLR
11:40 18.2 °C 8.7 °C 1006.5 hPa SSW 4.7 km/h 7.4 km/h 54% 0.0 mm CLR
11:45 18.4 °C 8.7 °C 1006.5 hPa South 4.7 km/h 9.3 km/h 53% 0.0 mm CLR
11:50 18.7 °C 8.6 °C 1006.1 hPa WSW 4.7 km/h 9.3 km/h 52% 0.0 mm CLR
11:55 18.9 °C 8.6 °C 1006.1 hPa SSW 4.7 km/h 11.1 km/h 51% 0.0 mm CLR
12:00 19.0 °C 8.6 °C 1006.1 hPa SSW 8.0 km/h 11.3 km/h 51% 0.0 mm CLR
12:05 19.2 °C 8.5 °C 1005.9 hPa South 6.4 km/h 7.4 km/h 50% 0.0 mm CLR
12:10 19.3 °C 8.3 °C 1005.9 hPa WSW 5.0 km/h 9.3 km/h 49% 0.0 mm CLR
12:15 19.4 °C 8.1 °C 1005.9 hPa WSW 5.0 km/h 7.4 km/h 48% 0.0 mm CLR
12:20 19.7 °C 8.4 °C 1005.6 hPa West 4.7 km/h 7.4 km/h 48% 0.0 mm CLR
12:25 19.9 °C 8.6 °C 1005.6 hPa WSW 4.7 km/h 9.3 km/h 48% 0.0 mm CLR
12:30 20.2 °C 8.5 °C 1005.6 hPa ESE 4.7 km/h 3.7 km/h 47% 0.0 mm CLR
12:35 20.5 °C 8.2 °C 1005.3 hPa SW 4.7 km/h 11.1 km/h 45% 0.0 mm CLR
12:40 20.6 °C 7.9 °C 1005.3 hPa West 4.7 km/h 7.4 km/h 44% 0.0 mm CLR
12:45 20.8 °C 8.1 °C 1005.3 hPa East 4.7 km/h 5.8 km/h 44% 0.0 mm CLR
12:50 21.1 °C 8.0 °C 1004.9 hPa SE 3.9 km/h 9.3 km/h 43% 0.0 mm CLR
12:55 21.3 °C 7.9 °C 1004.9 hPa ENE 3.9 km/h 7.4 km/h 42% 0.0 mm CLR
13:00 21.3 °C 7.9 °C 1004.9 hPa ESE 4.8 km/h 9.7 km/h 42% 0.0 mm CLR
13:05 21.7 °C 7.5 °C 1004.5 hPa SSE 5.0 km/h 5.8 km/h 40% 0.0 mm CLR
13:10 21.9 °C 7.3 °C 1004.5 hPa NW 3.9 km/h 7.4 km/h 39% 0.0 mm CLR
13:15 22.1 °C 7.5 °C 1004.5 hPa SW 3.9 km/h 9.3 km/h 39% 0.0 mm CLR
13:20 22.1 °C 7.5 °C 1004.2 hPa SW 5.0 km/h 9.3 km/h 39% 0.0 mm CLR
13:25 22.2 °C 7.2 °C 1004.2 hPa SW 5.0 km/h 2.3 km/h 38% 0.0 mm CLR
13:30 22.6 °C 6.8 °C 1004.2 hPa NE 3.2 km/h 5.6 km/h 36% 0.0 mm CLR
13:35 22.7 °C 6.8 °C 1003.7 hPa North 3.2 km/h 13.7 km/h 36% 0.0 mm CLR
13:40 22.8 °C 6.9 °C 1003.7 hPa NNE 5.8 km/h 9.3 km/h 36% 0.0 mm CLR
13:45 22.9 °C 7.1 °C 1003.7 hPa NNW 5.8 km/h 9.3 km/h 36% 0.0 mm CLR
13:50 22.9 °C 7.4 °C 1003.5 hPa NE 5.0 km/h 13.0 km/h 37% 0.0 mm CLR
13:55 23.0 °C 7.5 °C 1003.5 hPa ENE 5.0 km/h 14.8 km/h 37% 0.0 mm CLR
14:00 22.9 °C 7.4 °C 1003.5 hPa East 9.7 km/h 16.1 km/h 37% 0.0 mm CLR
14:05 23.1 °C 7.6 °C 1003.2 hPa South 8.7 km/h 14.8 km/h 37% 0.0 mm CLR
14:10 22.9 °C 7.8 °C 1003.2 hPa ESE 9.5 km/h 13.0 km/h 38% 0.0 mm CLR
14:15 23.1 °C 8.0 °C 1003.2 hPa ESE 9.5 km/h 13.0 km/h 38% 0.0 mm CLR
14:20 23.2 °C 8.1 °C 1002.8 hPa ESE 6.9 km/h 7.4 km/h 38% 0.0 mm CLR
14:25 23.2 °C 9.2 °C 1002.8 hPa ESE 6.9 km/h 22.2 km/h 41% 0.0 mm CLR
14:30 22.8 °C 9.9 °C 1002.8 hPa ESE 12.2 km/h 29.6 km/h 44% 0.0 mm CLR
14:35 22.6 °C 9.7 °C 1002.6 hPa ESE 12.2 km/h 27.8 km/h 44% 0.0 mm CLR
14:40 22.2 °C 9.7 °C 1002.6 hPa East 18.0 km/h 20.4 km/h 45% 0.0 mm CLR
14:45 22.3 °C 9.8 °C 1002.6 hPa ESE 18.0 km/h 29.6 km/h 45% 0.0 mm CLR
14:50 22.7 °C 9.1 °C 1002.3 hPa SE 15.6 km/h 25.9 km/h 42% 0.0 mm CLR
14:55 22.8 °C 8.8 °C 1002.3 hPa SSE 15.6 km/h 23.3 km/h 41% 0.0 mm CLR
15:00 22.8 °C 8.5 °C 1002.3 hPa SE 14.5 km/h 24.1 km/h 40% 0.0 mm CLR
15:05 22.9 °C 7.8 °C 1001.9 hPa ESE 14.8 km/h 22.2 km/h 38% 0.0 mm CLR
15:10 23.1 °C 8.4 °C 1001.9 hPa SSE 17.2 km/h 19.0 km/h 39% 0.0 mm CLR
15:15 23.0 °C 7.9 °C 1001.9 hPa SE 17.2 km/h 25.9 km/h 38% 0.0 mm CLR
15:20 23.1 °C 8.4 °C 1001.5 hPa ESE 16.1 km/h 24.1 km/h 39% 0.0 mm CLR
15:25 22.9 °C 8.2 °C 1001.5 hPa SSE 16.1 km/h 33.3 km/h 39% 0.0 mm CLR
15:29 22.9 °C 8.6 °C 1001.5 hPa SE 19.8 km/h 27.8 km/h 40% 0.0 mm CLR
15:35 22.8 °C 8.1 °C 1001.3 hPa SE 19.8 km/h 29.6 km/h 39% 0.0 mm CLR
15:40 22.8 °C 8.5 °C 1001.3 hPa South 18.3 km/h 35.2 km/h 40% 0.0 mm CLR
15:45 22.6 °C 8.7 °C 1001.3 hPa SSW 18.3 km/h 28.2 km/h 41% 0.0 mm CLR
15:50 22.6 °C 9.4 °C 1001.1 hPa SSE 20.1 km/h 31.5 km/h 43% 0.0 mm CLR
15:55 22.6 °C 9.4 °C 1001.1 hPa SE 20.1 km/h 25.9 km/h 43% 0.0 mm CLR
16:00 22.6 °C 9.7 °C 1001.1 hPa ESE 19.3 km/h 32.2 km/h 44% 0.0 mm CLR
16:05 22.5 °C 9.6 °C 1000.7 hPa SE 19.0 km/h 29.6 km/h 44% 0.0 mm CLR
16:10 22.5 °C 9.3 °C 1000.7 hPa SSE 19.8 km/h 27.8 km/h 43% 0.0 mm CLR
16:15 22.4 °C 9.2 °C 1000.7 hPa SE 19.8 km/h 38.9 km/h 43% 0.0 mm CLR
16:20 22.3 °C 9.4 °C 1000.5 hPa SE 21.7 km/h 29.6 km/h 44% 0.0 mm CLR
16:25 22.6 °C 9.7 °C 1000.5 hPa SE 21.7 km/h 31.5 km/h 44% 0.0 mm CLR
16:30 22.8 °C 9.6 °C 1000.5 hPa South 17.2 km/h 33.3 km/h 43% 0.0 mm CLR
16:35 22.8 °C 8.8 °C 1000.1 hPa SSE 17.2 km/h 29.6 km/h 41% 0.0 mm CLR
16:40 22.8 °C 8.1 °C 1000.1 hPa SSW 20.9 km/h 31.5 km/h 39% 0.0 mm CLR
16:45 22.9 °C 7.1 °C 1000.1 hPa SSE 20.9 km/h 38.9 km/h 36% 0.0 mm CLR
16:50 22.8 °C 7.3 °C 999.8 hPa South 23.3 km/h 33.3 km/h 37% 0.0 mm CLR
16:55 22.9 °C 8.2 °C 999.8 hPa South 23.3 km/h 33.3 km/h 39% 0.0 mm CLR
17:00 22.9 °C 8.2 °C 999.8 hPa SSE 22.5 km/h 35.4 km/h 39% 0.0 mm CLR
17:05 22.9 °C 8.2 °C 999.4 hPa SSE 22.0 km/h 25.9 km/h 39% 0.0 mm CLR
17:10 22.9 °C 8.6 °C 999.4 hPa South 23.3 km/h 38.9 km/h 40% 0.0 mm CLR
17:15 22.8 °C 8.8 °C 999.4 hPa SSE 23.3 km/h 33.3 km/h 41% 0.0 mm CLR
17:20 22.7 °C 9.1 °C 999.2 hPa SSW 21.7 km/h 27.4 km/h 42% 0.0 mm CLR
17:25 22.9 °C 8.2 °C 999.2 hPa South 21.7 km/h 35.2 km/h 39% 0.0 mm CLR
17:30 22.8 °C 8.5 °C 999.2 hPa SSE 20.1 km/h 31.5 km/h 40% 0.0 mm CLR
17:35 22.7 °C 8.4 °C 998.9 hPa SE 20.1 km/h 38.9 km/h 40% 0.0 mm CLR
17:40 22.8 °C 8.5 °C 998.9 hPa South 23.3 km/h 25.9 km/h 40% 0.0 mm CLR
17:45 22.9 °C 8.2 °C 998.9 hPa South 23.3 km/h 34.6 km/h 39% 0.0 mm CLR
17:50 22.7 °C 8.4 °C 998.7 hPa SSE 20.9 km/h 29.6 km/h 40% 0.0 mm CLR
17:55 22.7 °C 8.8 °C 998.7 hPa South 20.9 km/h 25.9 km/h 41% 0.0 mm CLR
18:00 22.8 °C 8.8 °C 998.7 hPa SSE 19.3 km/h 35.4 km/h 41% 0.0 mm CLR
18:05 22.7 °C 8.8 °C 998.4 hPa South 19.0 km/h 29.6 km/h 41% 0.0 mm CLR
18:10 22.7 °C 8.8 °C 998.4 hPa South 21.7 km/h 29.6 km/h 41% 0.0 mm CLR
18:15 22.6 °C 9.1 °C 998.4 hPa ESE 21.7 km/h 27.8 km/h 42% 0.0 mm CLR
18:20 22.7 °C 9.1 °C 998.2 hPa SSE 19.0 km/h 25.9 km/h 42% 0.0 mm CLR
18:25 22.7 °C 9.1 °C 998.2 hPa ESE 19.0 km/h 27.8 km/h 42% 0.0 mm CLR
18:30 22.6 °C 9.4 °C 998.2 hPa SE 17.2 km/h 29.6 km/h 43% 0.0 mm CLR
18:35 22.5 °C 9.3 °C 998.1 hPa SE 17.2 km/h 25.9 km/h 43% 0.0 mm CLR
18:40 22.2 °C 10.0 °C 998.1 hPa SSE 18.0 km/h 24.1 km/h 46% 0.0 mm CLR
18:45 21.8 °C 10.9 °C 998.1 hPa SE 18.0 km/h 20.4 km/h 50% 0.0 mm CLR
18:50 21.6 °C 10.7 °C 997.9 hPa SE 14.0 km/h 25.9 km/h 50% 0.0 mm CLR
18:55 21.5 °C 10.9 °C 997.9 hPa ESE 14.0 km/h 24.1 km/h 51% 0.0 mm CLR
19:00 21.5 °C 10.6 °C 997.9 hPa ESE 14.5 km/h 27.4 km/h 50% 0.0 mm CLR
19:05 21.4 °C 10.6 °C 997.9 hPa SSE 15.6 km/h 25.9 km/h 50% 0.0 mm CLR
19:10 21.4 °C 10.6 °C 997.9 hPa SE 16.4 km/h 25.9 km/h 50% 0.0 mm CLR
19:15 21.4 °C 10.2 °C 997.9 hPa ESE 16.4 km/h 22.2 km/h 49% 0.0 mm CLR
19:20 21.4 °C 10.2 °C 997.8 hPa SE 16.1 km/h 22.2 km/h 49% 0.0 mm CLR
19:25 21.4 °C 10.2 °C 997.8 hPa ESE 16.1 km/h 20.4 km/h 49% 0.0 mm CLR
19:30 21.4 °C 10.2 °C 997.8 hPa ESE 14.0 km/h 18.5 km/h 49% 0.0 mm CLR
19:35 21.4 °C 9.9 °C 997.7 hPa SE 14.0 km/h 18.5 km/h 48% 0.0 mm CLR
19:40 21.5 °C 9.7 °C 997.7 hPa East 12.2 km/h 13.0 km/h 47% 0.0 mm CLR
19:45 21.5 °C 10.0 °C 997.7 hPa ESE 12.2 km/h 11.1 km/h 48% 0.0 mm CLR
19:50 21.3 °C 10.2 °C 997.8 hPa ESE 10.0 km/h 11.1 km/h 49% 0.0 mm CLR
19:55 21.2 °C 10.1 °C 997.8 hPa SE 10.0 km/h 14.8 km/h 49% 0.0 mm CLR
20:00 21.1 °C 9.9 °C 997.8 hPa ESE 9.7 km/h 16.1 km/h 49% 0.0 mm CLR
20:05 21.0 °C 10.2 °C 997.9 hPa ESE 8.7 km/h 11.1 km/h 50% 0.0 mm CLR
20:10 20.9 °C 10.1 °C 997.9 hPa ESE 8.7 km/h 13.0 km/h 50% 0.0 mm CLR
20:15 20.8 °C 10.0 °C 997.9 hPa East 8.7 km/h 7.4 km/h 50% 0.0 mm CLR
20:20 20.7 °C 9.9 °C 998.0 hPa NW 6.9 km/h 6.4 km/h 50% 0.0 mm CLR
20:25 20.7 °C 10.2 °C 998.0 hPa NNW 6.9 km/h 7.4 km/h 51% 0.0 mm CLR
20:30 20.5 °C 10.0 °C 998.0 hPa NNW 3.9 km/h 7.4 km/h 51% 0.0 mm CLR
20:35 20.3 °C 9.8 °C 998.1 hPa NNW 3.9 km/h 5.6 km/h 51% 0.0 mm CLR
20:40 20.2 °C 10.0 °C 998.1 hPa NE 3.2 km/h 7.4 km/h 52% 0.0 mm CLR
20:45 20.1 °C 9.9 °C 998.1 hPa ESE 3.2 km/h 9.3 km/h 52% 0.0 mm CLR
20:50 20.1 °C 9.9 °C 998.3 hPa SE 6.4 km/h 9.3 km/h 52% 0.0 mm CLR
20:55 20.1 °C 9.9 °C 998.3 hPa SE 6.4 km/h 8.4 km/h 52% 0.0 mm CLR
21:00 19.9 °C 9.8 °C 998.3 hPa SE 8.0 km/h 11.3 km/h 52% 0.0 mm CLR
21:05 19.9 °C 9.7 °C 998.3 hPa SSE 6.4 km/h 7.4 km/h 52% 0.0 mm CLR
21:10 19.9 °C 9.7 °C 998.3 hPa SSE 5.8 km/h 5.8 km/h 52% 0.0 mm CLR
21:15 20.0 °C 10.1 °C 998.3 hPa SSE 5.8 km/h 7.4 km/h 53% 0.0 mm CLR
21:20 20.1 °C 10.2 °C 998.4 hPa SE 5.0 km/h 7.4 km/h 53% 0.0 mm CLR
21:25 20.1 °C 10.2 °C 998.4 hPa SSE 5.0 km/h 3.7 km/h 53% 0.0 mm CLR
21:30 20.1 °C 10.2 °C 998.4 hPa SSE 3.9 km/h   53% 0.0 mm CLR
21:35 20.0 °C 10.4 °C 998.7 hPa South 3.9 km/h 5.6 km/h 54% 0.0 mm CLR
21:40 19.8 °C 10.8 °C 998.7 hPa SSW 3.2 km/h 14.8 km/h 56% 0.0 mm CLR
21:45 19.6 °C 10.8 °C 998.7 hPa SSW 3.2 km/h 16.7 km/h 57% 0.0 mm CLR
21:50 19.4 °C 10.9 °C 998.8 hPa SSW 8.7 km/h 12.2 km/h 58% 0.0 mm CLR
21:55 19.2 °C 11.0 °C 998.8 hPa SSW 8.7 km/h 13.0 km/h 59% 0.0 mm CLR
22:00 19.2 °C 11.0 °C 998.8 hPa SSW 9.7 km/h 14.5 km/h 59% 0.0 mm CLR
22:05 19.1 °C 11.2 °C 999.0 hPa South 9.5 km/h 11.1 km/h 60% 0.0 mm CLR
22:10 18.9 °C 11.2 °C 999.0 hPa SSW 7.6 km/h 9.5 km/h 61% 0.0 mm CLR
22:15 18.8 °C 11.1 °C 999.0 hPa WSW 7.6 km/h 11.1 km/h 61% 0.0 mm CLR
22:20 18.7 °C 11.3 °C 999.3 hPa West 6.9 km/h 7.4 km/h 62% 0.0 mm CLR
22:25 18.7 °C 11.3 °C 999.3 hPa SW 6.9 km/h 7.4 km/h 62% 0.0 mm CLR
22:30 18.6 °C 11.2 °C 999.3 hPa WSW 5.0 km/h 8.4 km/h 62% 0.0 mm CLR
22:35 18.5 °C 11.3 °C 999.4 hPa SSW 5.0 km/h 9.3 km/h 63% 0.0 mm CLR
22:40 18.4 °C 11.2 °C 999.4 hPa SSW 6.4 km/h 9.3 km/h 63% 0.0 mm CLR
22:45 18.3 °C 11.1 °C 999.4 hPa SSW 6.4 km/h 13.0 km/h 63% 0.0 mm CLR
22:50 18.3 °C 11.4 °C 999.3 hPa South 8.4 km/h 11.9 km/h 64% 0.0 mm CLR
22:55 18.2 °C 11.1 °C 999.3 hPa SSW 8.4 km/h 18.5 km/h 63% 0.0 mm CLR
23:00 18.2 °C 10.8 °C 999.3 hPa SSW 11.3 km/h 19.3 km/h 62% 0.0 mm CLR
23:05 18.3 °C 10.9 °C 999.3 hPa SW 10.3 km/h 5.6 km/h 62% 0.0 mm CLR
23:10 18.2 °C 11.1 °C 999.3 hPa SW 4.7 km/h 3.7 km/h 63% 0.0 mm CLR
23:15 18.1 °C 11.2 °C 999.3 hPa SW 4.7 km/h   64% 0.0 mm CLR
23:20 17.9 °C 11.2 °C 999.5 hPa Calm     65% 0.0 mm CLR
23:25 17.8 °C 10.9 °C 999.5 hPa Calm   5.8 km/h 64% 0.0 mm CLR
23:30 17.7 °C 10.1 °C 999.5 hPa SSW 2.9 km/h 7.4 km/h 61% 0.0 mm CLR
23:35 17.8 °C 9.9 °C 999.4 hPa South 2.9 km/h 8.7 km/h 60% 0.0 mm CLR
23:40 17.9 °C 9.3 °C 999.4 hPa SSW 6.4 km/h 9.3 km/h 57% 0.0 mm CLR
23:45 17.9 °C 8.7 °C 999.4 hPa SSW 6.4 km/h 9.3 km/h 55% 0.0 mm CLR
23:50 18.0 °C 8.6 °C 999.4 hPa SSW 7.6 km/h 13.0 km/h 54% 0.0 mm CLR
23:55 18.1 °C 8.1 °C 999.4 hPa SSW 7.6 km/h 9.3 km/h 52% 0.0 mm CLR
Murcia-Puente Tocinos, España
Compliments of Weather Underground - 2.75 mb

La estación de MeteoMurcia.com, publica sus datos en los siguientes proyectos:

Weather Underground PWS IMURCIAP2 Meteoclimatic www.awekas.at

W3Counter
Web Analytics